Tiempo atmosférico en la estación meteorológica de Xinzo De Limia, Ourense (600 m.)



Fecha
DESCASC
Temp. máxima en grados centígrados (hora)
DESCASC
Temp. mínima en grados centígrados (hora)
DESCASC
Temp. media en grados centígrados
DESCASC
Racha de viento máxima en m/sg (hora)
DESCASC
Velocidad máxima media en intervalos de 10 minutos(hora)
DESCASC
Precipitaciones diarias en mm
DESCASC
Precipitaciones de 00:00 a 06:00 en mm
DESCASC
Precipitaciones de 06:00 a 12:00 en mm
DESCASC
Precipitaciones de 12:00 a 18:00 en mm
DESCASC
Precipitaciones de 18:00 a 24:00 en mm
DESCASC
08-12-2019 11.2 (17:00) 3.6 (22:40) 7.4 4.44 (12:40) 2.22 (22:50) 5.7 0 5 0.7 0
07-12-2019 13.4 (14:30) -3.3 (06:50) 5 3.33 (17:00) 2.22 (17:00) 0 0 0 0 0
06-12-2019 13.1 (16:20) -3 (03:20) 5.1 2.78 (03:50) 1.67 (00:40) 0 0 0 0 0
05-12-2019 11.2 (14:40) -5.1 (-00:0) 3 4.72 (14:10) 3.06 (15:10) 0 0 0 0 0
04-12-2019 10 (15:00) -4.2 (09:10) 2.9 5.56 (14:00) 3.89 (15:50) 0 0 0 0 0
03-12-2019 8.9 (15:20) -4.8 (-00:0) 2 6.67 (11:50) 3.89 (12:20) 0 0 0 0 0
02-12-2019 9.9 (15:00) -2.5 (-00:0) 3.7 10 (13:40) 6.11 (14:30) 0 0 0 0 0
01-12-2019 9.8 (14:20) 4 (00:00) 6.9 12.22 (22:00) 7.78 (20:50) 17.4 12.1 5.3 0 0
30-11-2019 12 (05:20) 5.8 (00:00) 8.9 11.94 (04:00) 5.28 (05:20) 11.1 4.6 3.5 0 3
29-11-2019 14.4 (16:00) 6.4 (00:00) 10.4 5.56 (16:40) 3.61 (16:40) 4 0 0 0 4
28-11-2019 12.9 (12:40) 8.2 (01:30) 10.5 13.06 (17:00) 5.83 (17:00) 2.6 0 0 2.3 0.3
27-11-2019 10 (14:50) 6.7 (00:00) 8.3 10.28 (22:30) 4.72 (01:00) 3.5 0 2.4 0.7 0.4
26-11-2019 16.1 (14:30) 5.4 (00:00) 10.8 16.94 (15:10) 8.33 (15:10) 5.3 1.6 0.9 2.1 0.7
25-11-2019 12.8 (16:40) 7.7 (08:00) 10.3 9.44 (00:30) 3.89 (03:40) 0.2 0.2 0 0 0
24-11-2019 11.1 (22:10) 1.2 (00:00) 6.2 8.61 (22:30) 4.44 (23:40) 2.8 0 0 0.2 2.6
23-11-2019 8.8 (14:40) 3.1 (00:00) 6 12.5 (02:20) 6.94 (02:20) 3.7 2.1 0.5 1 0.1
22-11-2019 12.2 (12:00) 4.5 (00:00) 8.3 15 (18:30) 7.78 (22:30) 15.4 1.5 3.8 2.9 7.2
21-11-2019 11.2 (14:10) 1.1 (00:00) 6.1 6.67 (14:50) 3.61 (13:00) 4.4 4.4 0 0 0
20-11-2019 9.6 (13:40) 3 (20:10) 6.3 7.5 (00:50) 4.17 (00:50) 0.7 0 0.4 0.2 0.1
19-11-2019 7.4 (13:30) -2.3 (-00:0) 2.6 8.89 (22:00) 5.28 (15:40) 1.6 0 0.4 0 1.2
18-11-2019 9.3 (15:00) -1.9 (-00:0) 3.7 7.78 (14:00) 5 (14:00) 0 0 0 0 0
17-11-2019 8.2 (16:20) 3.6 (00:00) 5.9 9.17 (23:20) 4.72 (14:20) 6.3 0 5.6 0.7 0
16-11-2019 7.5 (15:10) 0.6 (00:00) 4.1 7.78 (14:20) 4.44 (14:40) 0.3 0 0 0 0.3
15-11-2019 5.7 (14:20) 0.2 (00:00) 2.9 12.5 (01:20) 6.94 (15:50) 0.9 0 0 0.2 0.7
14-11-2019 7.1 (00:10) 0.4 (00:00) 3.7 16.67 (17:30) 10 (17:30) 16.4 6.7 4.1 4.4 1.2
13-11-2019 12.4 (01:30) 6.5 (00:00) 9.4 13.61 (03:20) 6.67 (03:20) 4 3 0 0 1
12-11-2019 11.2 (23:59) 1.8 (00:00) 6.5 10.28 (18:30) 4.72 (18:30) 17.7 0 0.6 0.2 16.9

Gráficas

Temp. máximas Temp. mínimas Temp. medias Precipitaciones Rachas de viento máximas Velocidades máximas media en intervalos de 10 minutos

Datos horarios

Fecha y hora oficial Temperatura (ºC) Velocidad del viento (km/h) Dirección del viento Racha (km/h) Dirección de racha Precipitación (mm) Presión (hPa) Tendencia (hPa) Humedad (%)
2019-12-11 23:00:00 4.9 5 Oeste 14 Oeste 0 -- -- 89
2019-12-11 22:00:00 5.2 6 Oeste 14 Oeste 0.1 -- -- 90
2019-12-11 21:00:00 5.2 4 Oeste 15 Oeste 0.1 -- -- 89
2019-12-11 20:00:00 5.1 6 Noroeste 14 Oeste 0.4 -- -- 89
2019-12-11 19:00:00 5.2 7 Noroeste 17 Oeste 0.2 -- -- 87
2019-12-11 18:00:00 5.3 12 Oeste 29 Oeste 0.1 -- -- 84
2019-12-11 17:00:00 6 13 Oeste 27 Noroeste 0 -- -- 79
2019-12-11 16:00:00 5.8 11 Oeste 30 Oeste 0 -- -- 79
2019-12-11 15:00:00 6.4 16 Oeste 34 Oeste 0 -- -- 70
2019-12-11 14:00:00 6.6 13 Noroeste 28 Noroeste 0.1 -- -- 70
2019-12-11 13:00:00 5.8 15 Noroeste 27 Noroeste 0 -- -- 73
2019-12-11 12:00:00 5.2 15 Noroeste 25 Noroeste 0 -- -- 81
2019-12-11 11:00:00 4.5 6 Noroeste 17 Noroeste 0 -- -- 89
2019-12-11 10:00:00 3.5 10 Noroeste 19 Noroeste 0 -- -- 90
2019-12-11 09:00:00 3.5 13 Noroeste 27 Noroeste 0 -- -- 91
2019-12-11 08:00:00 4.4 15 Noroeste 32 Noroeste 0.4 -- -- 91
2019-12-11 07:00:00 4.8 18 Noroeste 28 Noroeste 0.1 -- -- 91
2019-12-11 06:00:00 5.1 12 Noroeste 28 Noroeste 0.5 -- -- 91
2019-12-11 05:00:00 5.6 23 Noroeste 40 Noroeste 1.3 -- -- 89
2019-12-11 04:00:00 4.9 3 Sudeste 13 Sudeste 2 -- -- 84
2019-12-11 03:00:00 5.3 5 Sudeste 18 Sudeste 0.5 -- -- 76
2019-12-11 02:00:00 5.7 12 Sudeste 19 Sudeste 0 -- -- 70
2019-12-11 01:00:00 5.6 3 Sudeste 7 Sudeste 0 -- -- 70
2019-12-11 00:00:00 5.7 3 Este 10 Sur 0 -- -- 68
2019-12-10 23:00:00 6.2 0 Calma 16 Sudoeste 0 -- -- 65
2019-12-10 22:00:00 6 8 Sur 15 Sur 0 -- -- 65
2019-12-10 21:00:00 5.7 3 Sur 12 Sudeste 0 -- -- 71
2019-12-10 20:00:00 5.8 8 Sudeste 12 Este 0 -- -- 71
2019-12-10 19:00:00 5.6 7 Sudeste 11 Sudeste 0 -- -- 70
2019-12-10 18:00:00 7.7 4 Sudeste 16 Sudeste 0 -- -- 63
2019-12-10 17:00:00 9 9 Sudeste 17 Sudeste 0 -- -- 60
2019-12-10 16:00:00 8.9 6 Sudeste 15 Sudeste 0 -- -- 62
2019-12-10 15:00:00 8.7 10 Sudeste 22 Sudeste 0 -- -- 65
2019-12-10 14:00:00 8 13 Sudeste 24 Sudeste 0 -- -- 77
2019-12-10 13:00:00 7.5 9 Sudeste 16 Sudeste 0 -- -- 93
2019-12-10 12:00:00 3.6 2 Sudoeste 9 Oeste 0 -- -- 93
2019-12-10 11:00:00 0.7 3 Sudoeste 13 Sudoeste 0 -- -- 93
2019-12-10 10:00:00 -1 4 Sudoeste 10 Sudoeste 0 -- -- 93
2019-12-10 09:00:00 -1.8 4 Sudoeste 10 Sudoeste 0 -- -- 93
2019-12-10 08:00:00 -2.6 5 Sudoeste 9 Sudoeste 0 -- -- 93
2019-12-10 07:00:00 -3.1 5 Sudoeste 9 Sudoeste 0 -- -- 93
2019-12-10 06:00:00 -3.3 3 Sudoeste 6 Sudoeste 0 -- -- 93
2019-12-10 05:00:00 -3.2 3 Sudoeste 7 Sudoeste 0 -- -- 92
2019-12-10 04:00:00 -3.6 6 Sudoeste 8 Sudoeste 0 -- -- 92
2019-12-10 03:00:00 -3.2 4 Sudoeste 8 Sudoeste 0 -- -- 92
2019-12-10 02:00:00 -3.1 5 Sudoeste 9 Oeste 0 -- -- 92
2019-12-10 01:00:00 -2.8 0 Calma 6 Nordeste 0 -- -- 91
2019-12-10 00:00:00 -2.2 3 Sudoeste 5 Oeste 0 -- -- 91
2019-12-09 23:00:00 -1.3 0 Calma 5 Sur 0 -- -- 90
2019-12-09 22:00:00 0.6 4 Sur 8 Oeste 0 -- -- 89
2019-12-09 21:00:00 1.5 4 Sudoeste 8 Oeste 0 -- -- 89
2019-12-09 20:00:00 2.4 5 Oeste 12 Sudoeste 0 -- -- 86
2019-12-09 19:00:00 4.1 6 Oeste 8 Oeste 0 -- -- 84
2019-12-09 18:00:00 5.8 4 Oeste 9 Norte 0 -- -- 81
2019-12-09 17:00:00 7.3 6 Noroeste 11 Noroeste 0 -- -- 81
2019-12-09 16:00:00 7.1 7 Noroeste 11 Noroeste 0 -- -- 83
2019-12-09 15:00:00 7.6 5 Noroeste 14 Noroeste 0 -- -- 86
2019-12-09 14:00:00 7.4 8 Noroeste 14 Noroeste 0 -- -- 92
2019-12-09 13:00:00 6.9 5 Noroeste 14 Sudoeste 0 -- -- 94
2019-12-09 12:00:00 6.1 8 Oeste 14 Oeste 0 -- -- 94
2019-12-09 11:00:00 4.3 5 Oeste 11 Oeste 0 -- -- 94
2019-12-09 10:00:00 2.8 0 Calma 8 Oeste 0 -- -- 94
2019-12-09 09:00:00 2.4 3 Sudoeste 9 Oeste 0 -- -- 94
2019-12-09 08:00:00 2 3 Sudoeste 11 Sudoeste 0 -- -- 94
2019-12-09 07:00:00 1.2 4 Sudoeste 8 Oeste 0 -- -- 94
2019-12-09 06:00:00 0.9 3 Sudoeste 4 Sudoeste 0 -- -- 94
2019-12-09 05:00:00 1 0 Calma 4 Norte 0 -- -- 93
2019-12-09 04:00:00 1.3 0 Calma 5 Sur 0 -- -- 94
2019-12-09 03:00:00 0.2 0 Calma 6 Sudeste 0 -- -- 93
2019-12-09 02:00:00 1 0 Calma 6 Noroeste 0 -- -- 93
2019-12-09 01:00:00 3.8 0 Calma 12 Oeste 0.1 -- -- 93
2019-12-09 00:00:00 4.9 7 Oeste 13 Oeste 0 -- -- 93
2019-12-08 23:00:00 5.8 6 Noroeste 14 Noroeste 0 -- -- 93
2019-12-08 22:00:00 4.5 0 Calma 7 Sudoeste 0 -- -- 93
2019-12-08 21:00:00 5.7 2 Oeste 8 Norte 0 -- -- 93
2019-12-08 20:00:00 6.2 3 Oeste 6 Oeste 0 -- -- 93
2019-12-08 19:00:00 8.1 0 Calma 5 Oeste 0 -- -- 93
2019-12-08 18:00:00 10.3 0 Calma 7 Noroeste 0 -- -- 93
2019-12-08 17:00:00 11.2 0 Calma 10 Norte 0 -- -- 93
2019-12-08 16:00:00 10.8 0 Calma -- -- 0 -- -- 93
2019-12-08 15:00:00 10.1 0 Calma 7 Nordeste 0.1 -- -- 92
2019-12-08 14:00:00 10.3 3 Norte 12 Sudoeste 0.5 -- -- 92
2019-12-08 13:00:00 10 5 Sudoeste 16 Sudoeste 0.1 -- -- 92
2019-12-08 12:00:00 9 4 Sudeste 10 Sudeste 1.3 -- -- 92
2019-12-08 11:00:00 8.3 6 Sudeste 12 Sudeste 2.1 -- -- 92
2019-12-08 10:00:00 8 4 Sudeste 12 Sudeste 0.1 -- -- 91
2019-12-08 09:00:00 7.6 4 Sudeste 8 Sudeste 1.3 -- -- 90
2019-12-08 08:00:00 7.6 4 Sur 7 Sudeste 0.2 -- -- 89
2019-12-08 07:00:00 7.5 4 Sudeste 9 Sudeste 0 -- -- 89
2019-12-08 06:00:00 7.7 5 Sudeste 10 Sur 0 -- -- 87
2019-12-08 05:00:00 7.7 5 Sur 9 Sur 0 -- -- 86
2019-12-08 04:00:00 7.5 4 Sudeste 10 Sudeste 0 -- -- 86
2019-12-08 03:00:00 7.3 7 Sudeste 13 Sudeste 0 -- -- 86
2019-12-08 02:00:00 7 4 Sudeste 7 Sudeste 0 -- -- 86
2019-12-08 01:00:00 6.6 0 Calma 5 Sudeste 0 -- -- 85
2019-12-08 00:00:00 6.1 0 Calma 6 Oeste 0 -- -- 84
2019-12-07 23:00:00 6.3 3 Sudeste 11 Sudeste 0 -- -- 84
2019-12-07 22:00:00 5.4 6 Sudeste 12 Sudeste 0 -- -- 83
2019-12-07 21:00:00 5 4 Sur 7 Sudeste 0 -- -- 83
2019-12-07 20:00:00 5.9 3 Sudoeste 6 Sudoeste 0 -- -- 77
2019-12-07 19:00:00 7.3 0 Calma 5 Oeste 0 -- -- 68
2019-12-07 18:00:00 10.1 0 Calma 8 Sudoeste 0 -- -- 60
2019-12-07 17:00:00 12.2 8 Norte 12 Norte 0 -- -- 58
2019-12-07 16:00:00 13.2 4 Norte 10 Noroeste 0 -- -- 51
2019-12-07 15:00:00 12.8 3 Nordeste 9 Noroeste 0 -- -- 54
2019-12-07 14:00:00 12.7 0 Calma 7 Norte 0 -- -- 69
2019-12-07 13:00:00 9.2 3 Este 10 Norte 0 -- -- 93
2019-12-07 12:00:00 5.5 0 Calma 5 Sudoeste 0 -- -- 94
2019-12-07 11:00:00 1.4 0 Calma 5 Sudoeste 0 -- -- 94
2019-12-07 10:00:00 -1.3 3 Sudoeste 8 Sudoeste 0 -- -- 94
2019-12-07 09:00:00 -2.5 3 Oeste 6 Oeste 0 -- -- 94
2019-12-07 08:00:00 -2.4 3 Sur 10 Sur 0 -- -- 93
2019-12-07 07:00:00 -3.1 4 Noroeste 10 Noroeste 0 -- -- 93
2019-12-07 06:00:00 -2.9 0 Calma 6 Sur 0 -- -- 93
2019-12-07 05:00:00 -2.9 0 Calma 7 Oeste 0 -- -- 92
2019-12-07 04:00:00 -2.5 0 Calma 5 Sur 0 -- -- 92
2019-12-07 03:00:00 -1.7 2 Noroeste 9 Sur 0 -- -- 92
2019-12-07 02:00:00 -1.6 0 Calma -- -- 0 -- -- 91
2019-12-07 01:00:00 -1.2 0 Calma 9 Sur 0 -- -- 91
2019-12-07 00:00:00 -0.9 0 Calma 4 Sur 0 -- -- 90
2019-12-06 23:00:00 -0.6 0 Calma 8 Sur 0 -- -- 89
2019-12-06 22:00:00 0.6 3 Sur 8 Sur 0 -- -- 87
2019-12-06 21:00:00 2.2 3 Sur 6 Oeste 0 -- -- 85
2019-12-06 20:00:00 3.2 2 Sur 6 Sudoeste 0 -- -- 80
2019-12-06 19:00:00 5.6 0 Calma 6 Noroeste 0 -- -- 71
2019-12-06 18:00:00 9.5 4 Norte 6 Este 0 -- -- 62
2019-12-06 17:00:00 12.7 5 Este 9 Este 0 -- -- 56
2019-12-06 16:00:00 12.7 0 Calma 9 Sur 0 -- -- 59
2019-12-06 15:00:00 11.7 2 Oeste 8 Oeste 0 -- -- 71
2019-12-06 14:00:00 9.3 2 Noroeste 6 Noroeste 0 -- -- 89
2019-12-06 13:00:00 6.7 2 Sudoeste 7 Oeste 0 -- -- 93
2019-12-06 12:00:00 3.8 3 Oeste 6 Sudoeste 0 -- -- 93
2019-12-06 11:00:00 2.4 3 Sudoeste 10 Oeste 0 -- -- 93
2019-12-06 10:00:00 -1.2 3 Sudoeste 7 Sur 0 -- -- 93
2019-12-06 09:00:00 -2.3 3 Sudeste 5 Sudeste 0 -- -- 93
2019-12-06 08:00:00 -2.4 3 Sur 9 Sudoeste 0 -- -- 93
2019-12-06 07:00:00 -2.8 5 Sudoeste 9 Sur 0 -- -- 93
2019-12-06 06:00:00 -2.7 2 Sudoeste 8 Oeste 0 -- -- 93
2019-12-06 05:00:00 -2.7 3 Sur 9 Sudoeste 0 -- -- 92
2019-12-06 04:00:00 -2.5 4 Oeste 10 Oeste 0 -- -- 92
2019-12-06 03:00:00 -2.8 2 Sudoeste 7 Sudoeste 0 -- -- 92
2019-12-06 02:00:00 -2.6 4 Sudoeste 6 Sudoeste 0 -- -- 91
2019-12-06 01:00:00 -2.1 0 Calma 9 Oeste 0 -- -- 90
2019-12-06 00:00:00 -1.5 3 Sudoeste 6 Sudoeste 0 -- -- 90
2019-12-05 23:00:00 -1.4 0 Calma 7 Oeste 0 -- -- 88
2019-12-05 22:00:00 -0.4 2 Oeste 10 Sur 0 -- -- 86
2019-12-05 21:00:00 0.7 3 Noroeste 8 Noroeste 0 -- -- 82
2019-12-05 20:00:00 3 6 Sur 9 Sudoeste 0 -- -- 77
2019-12-05 19:00:00 4.6 3 Sudoeste 8 Sur 0 -- -- 69
2019-12-05 18:00:00 7.6 5 Noroeste 9 Norte 0 -- -- 60
2019-12-05 17:00:00 10.2 7 Norte 13 Norte 0 -- -- 55
2019-12-05 16:00:00 10.6 9 Norte 15 Nordeste 0 -- -- 53
2019-12-05 15:00:00 10.7 10 Norte 17 Norte 0 -- -- 54
2019-12-05 14:00:00 10 9 Norte 14 Norte 0 -- -- 61
2019-12-05 13:00:00 7.3 5 Este 9 Nordeste 0 -- -- 84
2019-12-05 12:00:00 3.6 3 Norte 7 Norte 0 -- -- 92
2019-12-05 11:00:00 1.9 0 Calma 8 Sudeste 0 -- -- 92
2019-12-05 10:00:00 -2.4 0 Calma 9 Sur 0 -- -- 92
2019-12-05 09:00:00 -4.6 4 Sudoeste 8 Oeste 0 -- -- 92
2019-12-05 08:00:00 -4.8 4 Sudeste 7 Sudeste 0 -- -- 92
2019-12-05 07:00:00 -4.5 0 Calma 7 Norte 0 -- -- 92
2019-12-05 06:00:00 -3 4 Sudeste 9 Sudeste 0 -- -- 91
2019-12-05 05:00:00 -2.4 3 Sudoeste 8 Sur 0 -- -- 91
2019-12-05 04:00:00 -2.1 3 Oeste 8 Sudoeste 0 -- -- 90
2019-12-05 03:00:00 -1.2 5 Sudoeste 11 Oeste 0 -- -- 90
2019-12-05 02:00:00 -1.7 4 Oeste 9 Oeste 0 -- -- 90
2019-12-05 01:00:00 -1.9 5 Sudoeste 6 Sur 0 -- -- 89
2019-12-05 00:00:00 -1.8 4 Sur 5 Sur 0 -- -- 88
2019-12-04 23:00:00 -1 0 Calma 8 Oeste 0 -- -- 86
2019-12-04 22:00:00 0.1 4 Sudoeste 7 Sur 0 -- -- 84
2019-12-04 21:00:00 1 4 Sur 10 Oeste 0 -- -- 79
2019-12-04 20:00:00 1.5 4 Sudoeste 9 Oeste 0 -- -- 73
2019-12-04 19:00:00 3.8 4 Noroeste 12 Noroeste 0 -- -- 65
2019-12-04 18:00:00 5.4 9 Noroeste 15 Noroeste 0 -- -- 61
2019-12-04 17:00:00 8 12 Noroeste 17 Noroeste 0 -- -- 55
2019-12-04 16:00:00 8.8 13 Norte 19 Norte 0 -- -- 54
2019-12-04 15:00:00 10 10 Norte 18 Norte 0 -- -- 52
2019-12-04 14:00:00 9.1 9 Norte 20 Norte 0 -- -- 56
2019-12-04 13:00:00 7 2 Norte 6 Noroeste 0 -- -- 68
2019-12-04 12:00:00 4 0 Calma 7 Nordeste 0 -- -- 83
2019-12-04 11:00:00 0.6 2 Noroeste 4 Norte 0 -- -- 88
2019-12-04 10:00:00 -1.3 0 Calma 7 Sudoeste 0 -- -- 88
2019-12-04 09:00:00 -4.1 2 Sur 8 Sudoeste 0 -- -- 86
2019-12-04 08:00:00 -2.3 0 Calma 14 Sudeste 0 -- -- 86
2019-12-04 07:00:00 -0.5 11 Sudeste 18 Sudeste 0 -- -- 87
2019-12-04 06:00:00 -0.5 6 Sudeste 15 Sudeste 0 -- -- 87
2019-12-04 05:00:00 -1.5 9 Sudeste 14 Sudeste 0 -- -- 87
2019-12-04 04:00:00 -1.9 6 Sudeste 16 Sudeste 0 -- -- 87
2019-12-04 03:00:00 -1.9 8 Sudeste 13 Sudeste 0 -- -- 87
2019-12-04 02:00:00 -2.1 3 Norte 13 Nordeste 0 -- -- 85
2019-12-04 01:00:00 -1.1 4 Nordeste 12 Sudeste 0 -- -- 83
2019-12-04 00:00:00 -0.5 5 Sudeste 14 Sudeste 0 -- -- 83
2019-12-03 23:00:00 -0.8 3 Este 10 Este 0 -- -- 81
2019-12-03 22:00:00 -0.2 6 Sudeste 10 Sudeste 0 -- -- 80
2019-12-03 21:00:00 1 6 Sur 17 Sudeste 0 -- -- 78
2019-12-03 20:00:00 0 5 Nordeste 9 Este 0 -- -- 73
2019-12-03 19:00:00 2 3 Nordeste 18 Este 0 -- -- 63
2019-12-03 18:00:00 5.3 5 Este 13 Sudeste 0 -- -- 53
2019-12-03 17:00:00 8.1 6 Sudeste 18 Este 0 -- -- 49
2019-12-03 16:00:00 8.7 10 Este 19 Este 0 -- -- 47
2019-12-03 15:00:00 8.6 8 Sudeste 21 Sur 0 -- -- 49
2019-12-03 14:00:00 7.6 8 Sudeste 24 Sudeste 0 -- -- 52
2019-12-03 13:00:00 6 12 Sudeste 23 Este 0 -- -- 59
2019-12-03 12:00:00 4.9 11 Sudeste 24 Sudeste 0 -- -- 76
2019-12-03 11:00:00 2.8 9 Este 17 Este 0 -- -- 92
2019-12-03 10:00:00 -0.3 3 Este 9 Este 0 -- -- 92
2019-12-03 09:00:00 -4 0 Calma 9 Este 0 -- -- 92
2019-12-03 08:00:00 -3.5 5 Este 14 Este 0 -- -- 92
2019-12-03 07:00:00 -4.3 2 Este 6 Este 0 -- -- 92
2019-12-03 06:00:00 -3.2 0 Calma 11 Sudeste 0 -- -- 92
2019-12-03 05:00:00 -2.5 2 Norte 14 Norte 0 -- -- 92
2019-12-03 04:00:00 -2.3 6 Este 10 Este 0 -- -- 92
2019-12-03 03:00:00 -3.7 4 Norte 9 Nordeste 0 -- -- 92
2019-12-03 02:00:00 -3.7 0 Calma 0 Calma 0 -- -- 91
2019-12-03 01:00:00 -3.2 0 Calma 6 Sudeste 0 -- -- 90
2019-12-03 00:00:00 -2.4 3 Sudeste 6 Sudeste 0 -- -- 89
2019-12-02 23:00:00 -1.5 0 Calma 6 Sudeste 0 -- -- 88
2019-12-02 22:00:00 -0.5 0 Calma 9 Sudoeste 0 -- -- 86
2019-12-02 21:00:00 0.9 4 Sudoeste 9 Sudoeste 0 -- -- 83
2019-12-02 20:00:00 1.9 3 Norte 8 Norte 0 -- -- 78
2019-12-02 19:00:00 4.1 2 Noroeste 20 Norte 0 -- -- 74
2019-12-02 18:00:00 6.1 10 Norte 28 Norte 0 -- -- 68
2019-12-02 17:00:00 8.6 16 Norte 29 Norte 0 -- -- 62
2019-12-02 16:00:00 9.7 17 Norte 33 Norte 0 -- -- 60
2019-12-02 15:00:00 9.9 19 Norte 32 Nordeste 0 -- -- 62
2019-12-02 14:00:00 9.3 19 Norte 36 Norte 0 -- -- 65
2019-12-02 13:00:00 8.6 19 Norte 32 Norte 0 -- -- 69
2019-12-02 12:00:00 6.4 10 Oeste 21 Oeste 0 -- -- 88
2019-12-02 11:00:00 4.3 7 Oeste 14 Oeste 0 -- -- 90
2019-12-02 10:00:00 2.8 3 Sudoeste 12 Sur 0 -- -- 90
2019-12-02 09:00:00 0 5 Sur 11 Sur 0 -- -- 89
2019-12-02 08:00:00 0.6 4 Norte 12 Noroeste 0 -- -- 89
2019-12-02 07:00:00 0.7 2 Oeste 12 Oeste 0 -- -- 88
2019-12-02 06:00:00 2.1 3 Oeste 15 Noroeste 0 -- -- 87
2019-12-02 05:00:00 3.5 8 Noroeste 22 Noroeste 0 -- -- 86
2019-12-02 04:00:00 3.7 14 Noroeste 23 Norte 0 -- -- 84
2019-12-02 03:00:00 3.4 5 Sudoeste 32 Norte 0 -- -- 84
2019-12-02 02:00:00 3.5 20 Norte 33 Norte 0 -- -- 81
2019-12-02 01:00:00 3.7 13 Norte 27 Norte 0 -- -- 78
2019-12-02 00:00:00 4 14 Norte 32 Norte 0 -- -- 76
2019-12-01 23:00:00 4.4 20 Norte 42 Nordeste 0 -- -- 76
2019-12-01 22:00:00 4.7 27 Norte 44 Nordeste 0 -- -- 80
2019-12-01 21:00:00 5.2 23 Norte 42 Norte 0 -- -- 83
2019-12-01 20:00:00 5.8 17 Norte 29 Noroeste 0 -- -- 84
2019-12-01 19:00:00 5.5 9 Norte 27 Norte 0 -- -- 79
2019-12-01 18:00:00 6.7 19 Norte 30 Norte 0 -- -- 74
2019-12-01 17:00:00 8.2 14 Norte 26 Norte 0 -- -- 73
2019-12-01 16:00:00 8.2 13 Norte 32 Noroeste 0 -- -- 72
2019-12-01 15:00:00 8.4 19 Norte 37 Norte 0 -- -- 72
2019-12-01 14:00:00 9.1 19 Norte 37 Nordeste 0 -- -- 77
2019-12-01 13:00:00 7.3 13 Norte 27 Norte 0 -- -- 86
2019-12-01 12:00:00 7.4 13 Norte 26 Norte 0 -- -- 91
2019-12-01 11:00:00 6.5 14 Norte 24 Norte 0 -- -- 92
2019-12-01 10:00:00 5.1 5 Norte 13 Nordeste 0.1 -- -- 92
2019-12-01 09:00:00 4.9 10 Este 25 Este 1.4 -- -- 92
2019-12-01 08:00:00 4.8 12 Este 22 Sudeste 2.2 -- -- 92
2019-12-01 07:00:00 5 5 Este 30 Sudeste 1.6 -- -- 92
2019-12-01 06:00:00 5.1 17 Sudeste 30 Sudeste 2 -- -- 91
2019-12-01 05:00:00 4.7 16 Sudeste 30 Sudeste 0.1 -- -- 89
2019-12-01 04:00:00 4.9 9 Sudeste 15 Sudeste 0.9 -- -- 89
2019-12-01 03:00:00 5.3 10 Sudeste 22 Noroeste 7 -- -- 87
2019-12-01 02:00:00 5.7 6 Sur 15 Sur 1.9 -- -- 87
2019-12-01 01:00:00 5.9 5 Sudeste 28 Sur 0.2 -- -- 86
2019-12-01 00:00:00 5.9 7 Sur 28 Sur 2.6 -- -- 87
2019-11-30 23:00:00 6.5 9 Sudeste 21 Sudeste 0.1 -- -- 86
2019-11-30 22:00:00 6.6 8 Sudoeste 23 Sudoeste 0 -- -- 85
2019-11-30 21:00:00 6.5 13 Sudoeste 27 Sudoeste 0.3 -- -- 84
2019-11-30 20:00:00 6.8 8 Sudoeste 21 Sudoeste 0 -- -- 82
2019-11-30 19:00:00 7 6 Sudoeste 19 Sudoeste 0 -- -- 81
2019-11-30 18:00:00 7.3 5 Sudoeste 27 Sudoeste 0 -- -- 74
2019-11-30 17:00:00 9.4 14 Sudoeste 30 Sudoeste 0 -- -- 60
2019-11-30 16:00:00 10.5 12 Oeste 30 Oeste 0 -- -- 58
2019-11-30 15:00:00 9.9 10 Oeste 33 Oeste 0 -- -- 55
2019-11-30 14:00:00 9.2 8 Noroeste 23 Noroeste 0 -- -- 69
2019-11-30 13:00:00 8.9 15 Oeste 26 Oeste 0 -- -- 69
2019-11-30 12:00:00 8.8 4 Noroeste 20 Noroeste 0 -- -- 84
2019-11-30 11:00:00 9.2 7 Noroeste 16 Noroeste 0 -- -- 84
2019-11-30 10:00:00 9.3 0 Calma 24 Oeste 0 -- -- 81
2019-11-30 09:00:00 9.1 13 Oeste 29 Oeste 0.3 -- -- 89
2019-11-30 08:00:00 10.2 17 Noroeste 43 Sudoeste 3.2 -- -- 92
2019-11-30 07:00:00 11.4 13 Sudoeste 31 Sudoeste 0 -- -- 92
2019-11-30 06:00:00 11.7 13 Sudoeste 42 Sudoeste 0.1 -- -- 92
2019-11-30 05:00:00 11.7 10 Sudoeste 31 Sur 2.1 -- -- 92
2019-11-30 04:00:00 11.8 10 Sudoeste 43 Oeste 0.5 -- -- 92
2019-11-30 03:00:00 11.4 6 Sudoeste 19 Sur 1.6 -- -- 92
2019-11-30 02:00:00 11.7 12 Sur 21 Sur 0.2 -- -- 92
2019-11-30 01:00:00 10.4 3 Sur 13 Sudeste 0.1 -- -- 92
2019-11-30 00:00:00 10.6 8 Sur 15 Sudeste 0.2 -- -- 92
2019-11-29 23:00:00 10.5 9 Sudeste 17 Sudeste 0.2 -- -- 91
2019-11-29 22:00:00 10.5 9 Sudeste 19 Sudeste 0.1 -- -- 91
2019-11-29 21:00:00 10.1 6 Sudeste 15 Sudeste 0.6 -- -- 90
2019-11-29 20:00:00 10.5 9 Sudeste 17 Sur 2.9 -- -- 88
2019-11-29 19:00:00 11.6 6 Sudeste 13 Sudeste 0 -- -- 85
2019-11-29 18:00:00 11.9 6 Sudeste 15 Sudeste 0 -- -- 81
2019-11-29 17:00:00 12.8 6 Sudeste 20 Sudeste 0 -- -- 77
2019-11-29 16:00:00 14.3 11 Sudeste 17 Sudeste 0 -- -- 77
2019-11-29 15:00:00 13.6 8 Este 13 Este 0 -- -- 90
2019-11-29 14:00:00 12.5 5 Sudeste 14 Sudeste 0 -- -- 93
2019-11-29 13:00:00 11.2 0 Calma 8 Sudoeste 0 -- -- 93
2019-11-29 12:00:00 9.5 4 Sur 8 Sur 0 -- -- 93
2019-11-29 11:00:00 8.1 3 Oeste 6 Oeste 0 -- -- 93
2019-11-29 10:00:00 7 0 Calma 7 Este 0 -- -- 93
2019-11-29 09:00:00 6.5 0 Calma 10 Sudeste 0 -- -- 93
2019-11-29 08:00:00 6.9 8 Sudeste 13 Sudeste 0 -- -- 93
2019-11-29 07:00:00 7.4 2 Sur 6 Sur 0 -- -- 93
2019-11-29 06:00:00 7.6 2 Sudeste 9 Sur 0 -- -- 92
2019-11-29 05:00:00 7.4 0 Calma 11 Sudeste 0 -- -- 92
2019-11-29 04:00:00 6.7 0 Calma 8 Sudoeste 0 -- -- 92
2019-11-29 03:00:00 7.6 0 Calma 6 Sur 0 -- -- 92
2019-11-29 02:00:00 6.9 0 Calma 4 Oeste 0 -- -- 92
2019-11-29 01:00:00 7.5 0 Calma 5 Sudoeste 0 -- -- 91
2019-11-29 00:00:00 8.8 0 Calma 9 Este 0 -- -- 91
2019-11-28 23:00:00 10.5 7 Noroeste 18 Norte 0 -- -- 91
2019-11-28 22:00:00 10.9 8 Norte 17 Noroeste 0 -- -- 92
2019-11-28 21:00:00 11.7 9 Noroeste 20 Noroeste 0 -- -- 92
2019-11-28 20:00:00 11.5 13 Oeste 30 Oeste 0.3 -- -- 92
2019-11-28 19:00:00 11.6 13 Oeste 39 Sudoeste 0 -- -- 91
2019-11-28 18:00:00 11.4 12 Sudoeste 42 Oeste 0.3 -- -- 90
2019-11-28 17:00:00 11.4 21 Oeste 47 Oeste 0.7 -- -- 89
2019-11-28 16:00:00 10.5 4 Sudeste 10 Oeste 1.3 -- -- 86
2019-11-28 15:00:00 11 3 Sudoeste 23 Sudoeste 0 -- -- 81
2019-11-28 14:00:00 11.4 9 Sudoeste 27 Sudoeste 0 -- -- 76
2019-11-28 13:00:00 12.5 11 Sudoeste 24 Sudoeste 0 -- -- 73
2019-11-28 12:00:00 11.5 13 Oeste 28 Oeste 0 -- -- 86
2019-11-28 11:00:00 11.4 18 Oeste 33 Oeste 0 -- -- 86
2019-11-28 10:00:00 11.2 4 Sudoeste 14 Sudoeste 0 -- -- 86
2019-11-28 09:00:00 10.9 5 Sudoeste 26 Sudoeste 0 -- -- 86
2019-11-28 08:00:00 11.4 12 Sudoeste 29 Sudoeste 0 -- -- 87
2019-11-28 07:00:00 11.6 7 Sudoeste 23 Oeste 0 -- -- 87
2019-11-28 06:00:00 11.7 9 Sudoeste 37 Oeste 0 -- -- 89
2019-11-28 05:00:00 11.2 9 Sudoeste 34 Sudoeste 0 -- -- 92
2019-11-28 04:00:00 10.4 8 Sudoeste 28 Sudoeste 0 -- -- 92
2019-11-28 03:00:00 9.3 4 Sur 17 Sur 0 -- -- 92
2019-11-28 02:00:00 8.6 4 Sudeste 8 Sudeste 0 -- -- 92
2019-11-28 01:00:00 8.9 7 Sudoeste 22 Sudoeste 0 -- -- 92
2019-11-28 00:00:00 8.9 10 Oeste 30 Sudoeste 0 -- -- 92
2019-11-27 23:00:00 8.7 13 Sudoeste 37 Oeste 0 -- -- 92
2019-11-27 22:00:00 8.7 13 Oeste 30 Oeste 0.1 -- -- 92
2019-11-27 21:00:00 8.3 10 Oeste 25 Sudoeste 0.1 -- -- 92
2019-11-27 20:00:00 8 10 Sudoeste 22 Oeste 0.1 -- -- 92
2019-11-27 19:00:00 8.2 7 Oeste 31 Sudoeste 0.1 -- -- 92
2019-11-27 18:00:00 8.4 13 Sudoeste 27 Oeste 0 -- -- 91
2019-11-27 17:00:00 9 11 Sudoeste 24 Sudoeste 0 -- -- 92
2019-11-27 16:00:00 9.5 13 Sudoeste 28 Sudoeste 0 -- -- 92
2019-11-27 15:00:00 9.6 12 Sudoeste 32 Oeste 0.1 -- -- 92
2019-11-27 14:00:00 8.9 11 Sudoeste 29 Sudoeste 0.3 -- -- 92
2019-11-27 06:00:00 7.2 6 Sudoeste 22 Oeste 0 -- -- 92
2019-11-27 05:00:00 7.7 11 Sudoeste 31 Oeste 0 -- -- 92
2019-11-27 04:00:00 7.6 13 Oeste 27 Oeste 0 -- -- 91
2019-11-27 03:00:00 7.4 10 Sudoeste 30 Sudoeste 0 -- -- 91
2019-11-27 02:00:00 7.5 12 Sudoeste 32 Sudoeste 0 -- -- 90
2019-11-27 01:00:00 7 17 Sudoeste 30 Sudoeste 0 -- -- 89
2019-11-27 00:00:00 6.7 11 Sudoeste 22 Sudoeste 0 -- -- 88
2019-11-26 23:00:00 6.3 9 Oeste 23 Oeste 0 -- -- 84
2019-11-26 22:00:00 5.9 5 Sudoeste 11 Oeste 0 -- -- 83
2019-11-26 21:00:00 7.8 8 Oeste 29 Oeste 0.1 -- -- 85
2019-11-26 20:00:00 8.4 8 Sudoeste 26 Oeste 0 -- -- 85
2019-11-26 19:00:00 9.3 15 Oeste 42 Oeste 0.6 -- -- 87
2019-11-26 18:00:00 9.5 16 Oeste 55 Sudoeste 1.7 -- -- 85
2019-11-26 17:00:00 11.6 21 Sudoeste 59 Sudoeste 0.2 -- -- 69
2019-11-26 16:00:00 12.1 23 Sudoeste 61 Sudoeste 0.2 -- -- 69
2019-11-26 15:00:00 15.6 25 Sudoeste 52 Sudoeste 0 -- -- 52
2019-11-26 14:00:00 15.1 16 Sur 42 Sudoeste 0 -- -- 54
2019-11-26 13:00:00 13.5 6 Sudoeste 30 Sudoeste 0 -- -- 58
2019-11-26 12:00:00 13.9 8 Sudoeste 30 Sur 0 -- -- 61
2019-11-26 11:00:00 11.7 8 Sur 22 Sur 0 -- -- 77
2019-11-26 10:00:00 11.3 11 Sudoeste 22 Sudoeste 0 -- -- 86
2019-11-26 09:00:00 10.5 4 Sur 30 Sudoeste 0 -- -- 90
2019-11-26 08:00:00 11.2 12 Oeste 33 Oeste 0.1 -- -- 91
2019-11-26 07:00:00 12 8 Sudoeste 28 Sudoeste 0.8 -- -- 90
2019-11-26 06:00:00 11.3 10 Sudeste 21 Sudeste 1.1 -- -- 89
2019-11-26 05:00:00 11.7 6 Sur 18 Sudeste 0.5 -- -- 87
2019-11-26 04:00:00 12 12 Sur 28 Sudeste 0 -- -- 87
2019-11-26 03:00:00 11.3 16 Sudeste 31 Sudeste 0 -- -- 89
2019-11-26 02:00:00 10.2 12 Sudeste 27 Sudeste 0 -- -- 88
2019-11-26 01:00:00 10.2 16 Sudeste 25 Sudeste 0 -- -- 86
2019-11-26 00:00:00 9.9 11 Sudeste 21 Sudeste 0 -- -- 85
2019-11-25 23:00:00 9.4 8 Sudeste 19 Sudeste 0 -- -- 83
2019-11-25 22:00:00 9.8 8 Sudeste 17 Sudeste 0 -- -- 82
2019-11-25 21:00:00 9.5 3 Sudeste 12 Sudoeste 0 -- -- 81
2019-11-25 20:00:00 9.9 5 Sur 13 Sudeste 0 -- -- 78
2019-11-25 19:00:00 10.5 4 Sudeste 9 Sudeste 0 -- -- 76
2019-11-25 18:00:00 11.1 5 Sudoeste 19 Sudoeste 0 -- -- 73
2019-11-25 17:00:00 12.1 8 Oeste 20 Norte 0 -- -- 73
2019-11-25 16:00:00 11.8 8 Oeste 22 Oeste 0 -- -- 81
2019-11-25 15:00:00 11.8 12 Sudoeste 30 Sudoeste 0 -- -- 81
2019-11-25 14:00:00 12.3 10 Sudoeste 29 Oeste 0 -- -- 84
2019-11-25 13:00:00 11.9 12 Oeste 29 Sudoeste 0 -- -- 84
2019-11-25 12:00:00 12.2 12 Sudoeste 24 Sudoeste 0 -- -- 89
2019-11-25 11:00:00 10.7 8 Oeste 19 Oeste 0 -- -- 91
2019-11-25 10:00:00 9.5 2 Sudoeste 14 Sur 0 -- -- 91
2019-11-25 09:00:00 8.8 4 Sur 14 Sudeste 0 -- -- 91
2019-11-25 08:00:00 8 6 Sudeste 15 Oeste 0 -- -- 91
2019-11-25 07:00:00 9.1 6 Oeste 12 Oeste 0 -- -- 92
2019-11-25 06:00:00 9.7 0 Calma 27 Oeste 0 -- -- 92
2019-11-25 05:00:00 10.3 12 Oeste 32 Noroeste 0.1 -- -- 92
2019-11-25 04:00:00 10.1 12 Sudoeste 32 Sudoeste 0 -- -- 92
2019-11-25 03:00:00 9.8 11 Sudoeste 30 Sudoeste 0 -- -- 92
2019-11-25 02:00:00 9.9 10 Oeste 24 Oeste 0 -- -- 92
2019-11-25 01:00:00 10.7 12 Sudoeste 34 Sudoeste 0.1 -- -- 92
2019-11-25 00:00:00 10.7 13 Sudoeste 28 Sudoeste 0 -- -- 92
2019-11-24 23:00:00 10.6 13 Sudoeste 31 Sudoeste 0.3 -- -- 92
2019-11-24 22:00:00 10.9 10 Sudoeste 26 Sudoeste 0.1 -- -- 92
2019-11-24 21:00:00 10 6 Sur 17 Sudoeste 1.1 -- -- 92
2019-11-24 20:00:00 8.8 4 Este 10 Sudeste 0.9 -- -- 91
2019-11-24 19:00:00 8.5 5 Sudeste 21 Sudeste 0.2 -- -- 90
2019-11-24 18:00:00 8.5 12 Sudeste 22 Sudeste 0.2 -- -- 89
2019-11-24 17:00:00 9.7 11 Sudeste 22 Sudeste 0 -- -- 89
2019-11-24 16:00:00 9.3 10 Sur 26 Sur 0 -- -- 90
2019-11-24 15:00:00 8.4 4 Noroeste 11 Este 0 -- -- 90
2019-11-24 14:00:00 8.4 5 Sudeste 9 Este 0 -- -- 91
2019-11-24 13:00:00 7.8 6 Sur 19 Sudeste 0 -- -- 92
2019-11-24 12:00:00 6.8 11 Sudeste 19 Sudeste 0 -- -- 93
2019-11-24 11:00:00 5.8 6 Sudeste 15 Sudeste 0 -- -- 93
2019-11-24 10:00:00 4.6 8 Sudeste 16 Sudeste 0 -- -- 93
2019-11-24 09:00:00 3.8 6 Sudeste 10 Sudeste 0 -- -- 93
2019-11-24 08:00:00 3.6 5 Sudeste 8 Sudeste 0 -- -- 93
2019-11-24 07:00:00 2.7 0 Calma 5 Sur 0 -- -- 93
2019-11-24 06:00:00 2.1 4 Sudeste 7 Sudeste 0 -- -- 92
2019-11-24 05:00:00 1.5 2 Sudeste 4 Sudeste 0 -- -- 92
2019-11-24 04:00:00 1.4 0 Calma 9 Oeste 0 -- -- 92
2019-11-24 03:00:00 1.2 3 Sudeste 5 Sudeste 0 -- -- 92
2019-11-24 02:00:00 1.8 3 Sudoeste 8 Norte 0 -- -- 91
2019-11-24 01:00:00 2.7 4 Oeste 9 Oeste 0 -- -- 90
2019-11-24 00:00:00 3.1 3 Sudoeste 16 Oeste 0 -- -- 90
2019-11-23 23:00:00 4.2 12 Oeste 19 Oeste 0 -- -- 90
2019-11-23 22:00:00 4.3 10 Oeste 15 Oeste 0 -- -- 90
2019-11-23 21:00:00 4.8 7 Oeste 17 Oeste 0 -- -- 89
2019-11-23 20:00:00 5.4 6 Oeste 21 Oeste 0.1 -- -- 89
2019-11-23 19:00:00 6.3 10 Oeste 20 Oeste 0 -- -- 88
2019-11-23 18:00:00 6.4 10 Oeste 22 Oeste 0.7 -- -- 86
2019-11-23 17:00:00 7.8 10 Oeste 21 Oeste 0 -- -- 82
2019-11-23 16:00:00 7.4 16 Oeste 28 Norte 0.2 -- -- 80
2019-11-23 15:00:00 7.8 14 Noroeste 31 Oeste 0.1 -- -- 73
2019-11-23 14:00:00 8.2 12 Oeste 35 Oeste 0 -- -- 73
2019-11-23 13:00:00 7.7 19 Noroeste 39 Oeste 0 -- -- 77
2019-11-23 12:00:00 7 16 Noroeste 39 Noroeste 0.1 -- -- 87
2019-11-23 11:00:00 5.7 15 Noroeste 32 Noroeste 0.1 -- -- 89
2019-11-23 10:00:00 4.9 10 Noroeste 24 Oeste 0.1 -- -- 90
2019-11-23 09:00:00 4.2 11 Oeste 24 Oeste 0.2 -- -- 90
2019-11-23 08:00:00 4.1 13 Noroeste 27 Oeste 0 -- -- 90
2019-11-23 07:00:00 3.9 14 Oeste 27 Oeste 0 -- -- 90
2019-11-23 06:00:00 3.8 12 Oeste 30 Noroeste 0.3 -- -- 90
2019-11-23 05:00:00 4.1 13 Noroeste 30 Noroeste 0.3 -- -- 90
2019-11-23 04:00:00 4.2 13 Noroeste 29 Oeste 0.2 -- -- 89
2019-11-23 03:00:00 4.4 14 Noroeste 45 Oeste 0.4 -- -- 89
2019-11-23 02:00:00 4.4 19 Oeste 42 Noroeste 0.7 -- -- 89
2019-11-23 01:00:00 4.6 16 Oeste 33 Oeste 0.2 -- -- 88
2019-11-23 00:00:00 4.5 19 Oeste 43 Oeste 0.9 -- -- 87
2019-11-22 23:00:00 5.1 28 Oeste 54 Oeste 1.7 -- -- 84
2019-11-22 22:00:00 5.9 25 Oeste 48 Noroeste 0.4 -- -- 88
2019-11-22 21:00:00 6.5 21 Oeste 40 Noroeste 1.5 -- -- 89
2019-11-22 20:00:00 7 10 Oeste 25 Oeste 0.6 -- -- 89
2019-11-22 19:00:00 7.2 19 Oeste 54 Norte 2.1 -- -- 89
2019-11-22 18:00:00 8.1 17 Oeste 37 Oeste 0.3 -- -- 89
2019-11-22 17:00:00 8.5 13 Sudoeste -- -- -- -- -- 88
2019-11-22 16:00:00 8 9 Sudoeste 48 Sudoeste 1.1 -- -- 84
2019-11-22 15:00:00 9.5 15 Sudoeste 36 Sudoeste 0.1 -- -- 78
2019-11-22 14:00:00 8.4 20 Oeste 41 Oeste 0.5 -- -- 77
2019-11-22 13:00:00 10.8 19 Oeste 50 Oeste 0.1 -- -- 75
2019-11-22 12:00:00 12 21 Oeste 44 Sudoeste 0.1 -- -- 89
2019-11-22 11:00:00 11.3 10 Sudoeste 30 Oeste 0.1 -- -- 92
2019-11-22 10:00:00 9.2 6 Sudoeste 34 Este 2.1 -- -- 92
2019-11-22 09:00:00 7.7 16 Sudeste 35 Sudeste 1.2 -- -- 92
2019-11-22 08:00:00 7.3 18 Sudeste 35 Sudeste 0.2 -- -- 91
2019-11-22 07:00:00 6.3 14 Sudeste 37 Sudeste 0.1 -- -- 90
2019-11-22 06:00:00 6.1 15 Sudeste 46 Sudeste 1.3 -- -- 89
2019-11-22 05:00:00 6 19 Sudeste 35 Sudeste 0.2 -- -- 87
2019-11-22 04:00:00 6.4 18 Sudeste 36 Sudeste 0 -- -- 81
2019-11-22 03:00:00 6.7 16 Sudeste 39 Sur 0 -- -- 80
2019-11-22 02:00:00 5.8 12 Sudeste 29 Sudeste 0 -- -- 84
2019-11-22 01:00:00 6.2 15 Sudeste 27 Sudeste 0 -- -- 84
2019-11-22 00:00:00 5.7 12 Sudeste 23 Sudeste 0 -- -- 84
2019-11-21 23:00:00 5.5 9 Sudeste 16 Sudeste 0 -- -- 81
2019-11-21 22:00:00 5.1 7 Sudeste 14 Sudeste 0 -- -- 79
2019-11-21 21:00:00 4.7 9 Sudeste 13 Sudeste 0 -- -- 77
2019-11-21 20:00:00 4.6 8 Sudeste 13 Sudeste 0 -- -- 73
2019-11-21 19:00:00 4.9 4 Sur 13 Sudoeste 0 -- -- 66
2019-11-21 18:00:00 6.9 3 Sudoeste 18 Sur 0 -- -- 60
2019-11-21 17:00:00 9.9 8 Sudoeste 22 Sudoeste 0 -- -- 53
2019-11-21 16:00:00 10.2 9 Sudoeste 24 Sudoeste 0 -- -- 53
2019-11-21 15:00:00 10.9 10 Oeste 24 Sudoeste 0 -- -- 55
2019-11-21 14:00:00 11.1 13 Oeste 24 Oeste 0 -- -- 59
2019-11-21 13:00:00 9.8 13 Sudoeste 22 Sudoeste 0 -- -- 73
2019-11-21 12:00:00 7.8 6 Sur 16 Sur 0 -- -- 90
2019-11-21 11:00:00 7.4 6 Sudeste 11 Sur 0 -- -- 92
2019-11-21 10:00:00 4.2 2 Sur 8 Sudeste 0 -- -- 92
2019-11-21 09:00:00 1.9 6 Sudeste 10 Sudeste 0 -- -- 92
2019-11-21 08:00:00 1.4 5 Sudeste 6 Sudeste 0 -- -- 92
2019-11-21 07:00:00 1.6 0 Calma 5 Sur 0 -- -- 92
2019-11-21 06:00:00 3.5 3 Este 4 Este 0.5 -- -- 92
2019-11-21 05:00:00 4 0 Calma 19 Oeste 0.4 -- -- 92
2019-11-21 04:00:00 4.3 5 Oeste 18 Sudoeste 2.7 -- -- 91
2019-11-21 03:00:00 3.8 3 Sur 12 Sudeste 0.7 -- -- 91
2019-11-21 02:00:00 3.7 5 Sudeste 12 Sudeste 0 -- -- 90
2019-11-21 01:00:00 4.1 7 Sudeste 14 Sudeste 0.1 -- -- 90
2019-11-21 00:00:00 3.6 6 Sudeste 14 Sudeste 0.1 -- -- 89
2019-11-20 23:00:00 3.5 5 Sudeste 12 Sudeste 0 -- -- 89
2019-11-20 22:00:00 3.5 5 Sur 15 Sudeste 0 -- -- 88
2019-11-20 21:00:00 3.6 4 Sudeste 12 Sudeste 0 -- -- 87
2019-11-20 20:00:00 3.3 0 Calma 10 Sudeste 0 -- -- 84
2019-11-20 19:00:00 4.5 6 Sur 25 Sur 0 -- -- 83
2019-11-20 18:00:00 5.5 6 Sudoeste 16 Sudoeste 0.2 -- -- 83
2019-11-20 17:00:00 6.8 4 Sudoeste 13 Sudoeste 0 -- -- 79
2019-11-20 16:00:00 7.1 5 Sudoeste 26 Oeste 0 -- -- 77
2019-11-20 15:00:00 8.4 9 Sudoeste 24 Oeste 0 -- -- 65
2019-11-20 14:00:00 9.1 5 Sudoeste 12 Sur 0 -- -- 87
2019-11-20 13:00:00 8.1 6 Este 17 Sudeste 0 -- -- 92
2019-11-20 12:00:00 7.3 8 Sudeste 15 Sudeste 0 -- -- 92
2019-11-20 11:00:00 6 8 Sudeste 14 Sudeste 0 -- -- 93
2019-11-20 10:00:00 5.1 5 Sudeste 12 Sudeste 0 -- -- 92
2019-11-20 09:00:00 4.7 6 Sudeste 13 Sudeste 0.4 -- -- 92
2019-11-20 08:00:00 4.6 5 Sur 18 Sur 0 -- -- 92
2019-11-20 07:00:00 4.4 9 Sudeste 21 Sudeste 0 -- -- 92
2019-11-20 06:00:00 4.4 11 Sudeste 23 Sudeste 0 -- -- 92
2019-11-20 05:00:00 4.7 13 Sudeste 24 Sudeste 0 -- -- 92
2019-11-20 04:00:00 4.7 10 Sudeste 22 Sudeste 0 -- -- 92
2019-11-20 03:00:00 4.7 10 Sudeste 19 Sudeste 0 -- -- 92
2019-11-20 02:00:00 4.6 9 Sudeste 25 Sudeste 0 -- -- 92
2019-11-20 01:00:00 4.5 14 Sudeste 27 Sudeste 0 -- -- 92
2019-11-20 00:00:00 4.5 14 Sudeste 32 Sudeste 0 -- -- 92
2019-11-19 23:00:00 4.3 15 Sudeste 31 Sudeste 0.1 -- -- 92
2019-11-19 22:00:00 4.1 17 Sudeste 32 Sudeste 0 -- -- 91
2019-11-19 21:00:00 4.1 12 Sudeste 26 Sudeste 0.4 -- -- 89
2019-11-19 20:00:00 4.4 14 Sudeste 27 Sudeste 0.5 -- -- 88
2019-11-19 19:00:00 4.9 15 Sudeste 30 Sudeste 0.2 -- -- 84
2019-11-19 18:00:00 5.6 17 Sudeste 32 Sudeste 0 -- -- 79
2019-11-19 17:00:00 6.3 15 Sudeste 28 Sudeste 0 -- -- 80
2019-11-19 16:00:00 6.5 15 Sudeste 30 Sudeste 0 -- -- 81
2019-11-19 15:00:00 6.6 15 Sudeste 28 Sudeste 0 -- -- 81
2019-11-19 14:00:00 7.3 12 Sudeste 23 Sudeste 0 -- -- 82
2019-11-19 13:00:00 6.5 13 Sudeste 26 Sudeste 0 -- -- 92
2019-11-19 12:00:00 5.4 16 Sudeste 26 Sudeste 0.1 -- -- 93
2019-11-19 11:00:00 3.8 13 Sudeste 21 Sudeste 0.3 -- -- 93
2019-11-19 10:00:00 1 2 Sudeste 10 Sur 0 -- -- 93
2019-11-19 09:00:00 -1.1 4 Sur 9 Oeste 0 -- -- 93
2019-11-19 08:00:00 -1.4 0 Calma 5 Sudoeste 0 -- -- 93
2019-11-19 07:00:00 -1.9 3 Sudoeste 9 Sudoeste 0 -- -- 93
2019-11-19 06:00:00 -1.9 4 Sudoeste 9 Sur 0 -- -- 92
2019-11-19 05:00:00 -2 5 Sur 7 Sudoeste 0 -- -- 92
2019-11-19 04:00:00 -1.8 5 Sudoeste 8 Sudoeste 0 -- -- 92
2019-11-19 03:00:00 -1.9 5 Sudoeste 8 Sudoeste 0 -- -- 92
2019-11-19 02:00:00 -2.1 4 Sudoeste 6 Sudoeste 0 -- -- 91
2019-11-19 01:00:00 -2.2 0 Calma 5 Oeste 0 -- -- 90
2019-11-19 00:00:00 -1.8 0 Calma 4 Oeste 0 -- -- 90
2019-11-18 23:00:00 -0.5 3 Sur 7 Sur 0 -- -- 89
2019-11-18 22:00:00 -0.3 3 Sur 8 Oeste 0 -- -- 87
2019-11-18 21:00:00 0.8 0 Calma 6 Sur 0 -- -- 85
2019-11-18 20:00:00 2.6 0 Calma 6 Noroeste 0 -- -- 81
2019-11-18 19:00:00 5.3 3 Noroeste 6 Noroeste 0 -- -- 76
2019-11-18 18:00:00 6.5 0 Calma 9 Noroeste 0 -- -- 71
2019-11-18 17:00:00 7.2 3 Norte 18 Norte 0 -- -- 67
2019-11-18 16:00:00 8.2 11 Norte 21 Nordeste 0 -- -- 65
2019-11-18 15:00:00 9 11 Norte 24 Noroeste 0 -- -- 65
2019-11-18 14:00:00 8 18 Norte 28 Norte 0 -- -- 71
2019-11-18 13:00:00 6.5 13 Norte 25 Noroeste 0 -- -- 76
2019-11-18 12:00:00 6.9 7 Norte 24 Norte 0 -- -- 78
2019-11-18 11:00:00 6.2 15 Norte 24 Norte 0 -- -- 84
2019-11-18 10:00:00 4.5 9 Noroeste 13 Noroeste 0 -- -- 90
2019-11-18 09:00:00 3.9 3 Noroeste 8 Noroeste 0 -- -- 90
2019-11-18 08:00:00 3.4 5 Oeste 9 Oeste 0 -- -- 90
2019-11-18 07:00:00 3 5 Noroeste 16 Noroeste 0 -- -- 89
2019-11-18 06:00:00 4 8 Noroeste 13 Noroeste 0 -- -- 89
2019-11-18 05:00:00 3.9 0 Calma 8 Noroeste 0 -- -- 89
2019-11-18 04:00:00 4 6 Noroeste 18 Noroeste 0 -- -- 89
2019-11-18 03:00:00 4.2 12 Noroeste 19 Noroeste 0 -- -- 89
2019-11-18 02:00:00 4.2 11 Noroeste 22 Norte 0 -- -- 89
2019-11-18 01:00:00 4.5 14 Norte 24 Norte 0 -- -- 89
2019-11-18 00:00:00 4.8 15 Noroeste 33 Noroeste 0 -- -- 88
2019-11-17 23:00:00 5 13 Noroeste 26 Oeste 0 -- -- 88
2019-11-17 22:00:00 4.6 12 Oeste 23 Oeste 0 -- -- 87
2019-11-17 21:00:00 4.6 10 Oeste 23 Oeste 0 -- -- 85
2019-11-17 20:00:00 4.9 8 Oeste 20 Oeste 0 -- -- 85
2019-11-17 19:00:00 5.3 5 Oeste 21 Noroeste 0 -- -- 85
2019-11-17 18:00:00 5.7 5 Oeste 19 Noroeste 0 -- -- 86
2019-11-17 17:00:00 6.3 11 Noroeste 27 Norte 0.1 -- -- 85
2019-11-17 16:00:00 8 13 Noroeste 27 Noroeste 0 -- -- 81
2019-11-17 15:00:00 7.8 12 Noroeste 29 Noroeste 0 -- -- 88
2019-11-17 14:00:00 7.7 15 Noroeste 30 Noroeste 0.3 -- -- 92
2019-11-17 13:00:00 7.2 12 Norte 24 Oeste 0.3 -- -- 93
2019-11-17 12:00:00 7.6 14 Noroeste 24 Oeste 0.1 -- -- 93
2019-11-17 11:00:00 7.4 12 Noroeste 24 Noroeste 0.6 -- -- 93
2019-11-17 10:00:00 6.8 11 Oeste 24 Oeste 1.4 -- -- 92
2019-11-17 09:00:00 6.2 4 Oeste 13 Oeste 1.1 -- -- 92
2019-11-17 08:00:00 5.3 4 Sudoeste 12 Sur 2.1 -- -- 92
2019-11-17 07:00:00 4.9 6 Sur 17 Sur 0.3 -- -- 92
2019-11-17 06:00:00 4.2 9 Sudeste 17 Sudeste 0 -- -- 91
2019-11-17 05:00:00 4.1 9 Sudeste 18 Sudeste 0 -- -- 91
2019-11-17 04:00:00 4 10 Sudeste 17 Sudeste 0 -- -- 91
2019-11-17 03:00:00 3.8 8 Sudeste 16 Sudeste 0 -- -- 90
2019-11-17 02:00:00 3.7 6 Sudeste 12 Sudeste 0 -- -- 90
2019-11-17 01:00:00 3.7 7 Sudeste 15 Sudeste 0 -- -- 89
2019-11-17 00:00:00 3.8 6 Sudeste 13 Sudeste 0.3 -- -- 87
2019-11-16 23:00:00 4.5 3 Sudoeste 9 Sudoeste 0 -- -- 86
2019-11-16 22:00:00 4.4 5 Sudoeste 17 Oeste 0 -- -- 84
2019-11-16 21:00:00 4.4 6 Sudoeste 17 Oeste 0 -- -- 82
2019-11-16 20:00:00 4.4 6 Sudoeste 17 Sudoeste 0 -- -- 81
2019-11-16 19:00:00 4.6 5 Oeste 20 Oeste 0 -- -- 80
2019-11-16 18:00:00 5 6 Oeste 20 Oeste 0 -- -- 74
2019-11-16 17:00:00 5.5 10 Noroeste 18 Noroeste 0 -- -- 68
2019-11-16 16:00:00 5.8 12 Noroeste 22 Oeste 0 -- -- 64
2019-11-16 15:00:00 7.4 13 Oeste 28 Noroeste 0 -- -- 53
2019-11-16 14:00:00 6.5 12 Noroeste 22 Oeste 0 -- -- 65
2019-11-16 13:00:00 6.2 9 Noroeste 18 Noroeste 0 -- -- 68
2019-11-16 12:00:00 5 12 Noroeste 19 Noroeste 0 -- -- 87
2019-11-16 11:00:00 4 6 Oeste 15 Oeste 0 -- -- 92
2019-11-16 10:00:00 2.6 4 Oeste 8 Oeste 0 -- -- 92
2019-11-16 09:00:00 1.9 0 Calma 12 Oeste 0 -- -- 92
2019-11-16 08:00:00 1.7 4 Oeste 11 Oeste 0 -- -- 92
2019-11-16 07:00:00 1.6 6 Oeste 13 Oeste 0 -- -- 92
2019-11-16 06:00:00 1.6 4 Oeste 14 Noroeste 0 -- -- 92
2019-11-16 05:00:00 1.4 7 Oeste 14 Oeste 0 -- -- 92
2019-11-16 04:00:00 1.1 8 Noroeste 14 Noroeste 0 -- -- 92
2019-11-16 03:00:00 0.9 5 Noroeste 16 Noroeste 0 -- -- 91
2019-11-16 02:00:00 1 9 Noroeste 18 Noroeste 0 -- -- 91
2019-11-16 01:00:00 0.9 8 Noroeste 21 Oeste 0 -- -- 91
2019-11-16 00:00:00 0.7 10 Noroeste 24 Noroeste 0 -- -- 91
2019-11-15 23:00:00 1 14 Noroeste 37 Noroeste 0 -- -- 90
2019-11-15 22:00:00 1.5 16 Noroeste 31 Noroeste 0.1 -- -- 90
2019-11-15 21:00:00 1.7 12 Noroeste 23 Oeste 0.1 -- -- 89
2019-11-15 20:00:00 1.9 14 Noroeste 28 Noroeste 0.3 -- -- 89
2019-11-15 19:00:00 2.1 14 Noroeste 28 Noroeste 0.2 -- -- 88
2019-11-15 18:00:00 2.6 17 Noroeste 32 Noroeste 0 -- -- 86
2019-11-15 17:00:00 3.9 16 Noroeste 33 Noroeste 0 -- -- 80
2019-11-15 16:00:00 3.8 23 Noroeste 44 Noroeste 0.1 -- -- 80
2019-11-15 15:00:00 4.7 17 Noroeste 36 Norte 0 -- -- 70
2019-11-15 14:00:00 5.2 22 Noroeste 36 Noroeste 0.1 -- -- 72
2019-11-15 13:00:00 4.3 17 Noroeste 35 Noroeste 0 -- -- 80
2019-11-15 12:00:00 3.7 18 Noroeste 36 Noroeste 0 -- -- 81
2019-11-15 11:00:00 2.8 16 Noroeste 28 Noroeste 0 -- -- 87
2019-11-15 10:00:00 1.6 10 Noroeste 28 Oeste 0 -- -- 90
2019-11-15 09:00:00 0.9 14 Oeste 26 Oeste 0 -- -- 90
2019-11-15 08:00:00 0.8 9 Oeste 21 Oeste 0 -- -- 90
2019-11-15 07:00:00 0.6 12 Noroeste 23 Noroeste 0 -- -- 89
2019-11-15 06:00:00 0.9 13 Noroeste 29 Oeste 0 -- -- 89
2019-11-15 05:00:00 1 14 Noroeste 33 Noroeste 0 -- -- 89
2019-11-15 04:00:00 1.2 13 Noroeste 24 Noroeste 0 -- -- 88
2019-11-15 03:00:00 0.9 14 Noroeste 44 Noroeste 0 -- -- 88
2019-11-15 02:00:00 1 14 Noroeste 45 Oeste 0 -- -- 86
2019-11-15 01:00:00 1.3 14 Noroeste 37 Oeste 0 -- -- 87
2019-11-15 00:00:00 1.6 14 Noroeste 45 Noroeste 0 -- -- 86
2019-11-14 23:00:00 2.1 16 Noroeste 33 Noroeste 0.1 -- -- 86
2019-11-14 22:00:00 2.5 17 Noroeste 33 Noroeste 0.2 -- -- 86
2019-11-14 21:00:00 2.8 21 Noroeste 55 Noroeste 0.1 -- -- 84
2019-11-14 20:00:00 3.3 23 Noroeste 41 Oeste 0 -- -- 88
2019-11-14 19:00:00 2.9 19 Noroeste 37 Noroeste 0.8 -- -- 89
2019-11-14 18:00:00 3.3 21 Noroeste 60 Noroeste 0.9 -- -- 88
2019-11-14 17:00:00 3.9 34 Noroeste 55 Noroeste 0.6 -- -- 87
2019-11-14 16:00:00 4.4 25 Noroeste 52 Noroeste 0.5 -- -- 87
2019-11-14 15:00:00 5.2 31 Noroeste 56 Noroeste 0.7 -- -- 85
2019-11-14 14:00:00 4.7 24 Noroeste 46 Noroeste 0.7 -- -- 89
2019-11-14 13:00:00 4.9 24 Noroeste 46 Oeste 1 -- -- 90
2019-11-14 12:00:00 2.9 11 Oeste 33 Oeste 0.5 -- -- 90
2019-11-14 11:00:00 3.1 10 Oeste 24 Oeste 0.7 -- -- 90
2019-11-14 10:00:00 1.4 6 Oeste 20 Oeste 1.3 -- -- 90
2019-11-14 09:00:00 0.7 4 Sudoeste 28 Oeste 0.1 -- -- 90
2019-11-14 08:00:00 1.1 15 Oeste 38 Oeste 1.5 -- -- 89
2019-11-14 07:00:00 2.2 15 Noroeste 41 Noroeste 0 -- -- 89
2019-11-14 06:00:00 1.6 8 Oeste 17 Oeste 0 -- -- 90
2019-11-14 05:00:00 1.9 5 Sudoeste 32 Noroeste 0.6 -- -- 90
2019-11-14 04:00:00 2.3 24 Noroeste 46 Noroeste 2.3 -- -- 90
2019-11-14 03:00:00 4.1 20 Noroeste 37 Noroeste 1.4 -- -- 89
2019-11-14 02:00:00 5.1 21 Noroeste 46 Oeste 1 -- -- 89
2019-11-14 01:00:00 6.2 17 Noroeste 46 Noroeste 1.4 -- -- 89
2019-11-14 00:00:00 6.8 11 Oeste 31 Sudoeste 0.9 -- -- 89
2019-11-13 23:00:00 6.9 10 Oeste 28 Oeste 0 -- -- 87
2019-11-13 22:00:00 6.7 9 Oeste 33 Oeste 0.1 -- -- 86
2019-11-13 21:00:00 7.4 17 Oeste 31 Oeste 0 -- -- 76
2019-11-13 20:00:00 7.3 8 Oeste 33 Noroeste 0 -- -- 76
2019-11-13 19:00:00 8.2 13 Oeste 28 Oeste 0 -- -- 73
2019-11-13 18:00:00 9 11 Oeste 27 Oeste 0 -- -- 71
2019-11-13 17:00:00 10 15 Oeste 25 Oeste 0 -- -- 71
2019-11-13 16:00:00 10.7 9 Oeste 23 Noroeste 0 -- -- 68
2019-11-13 15:00:00 10.7 13 Norte 24 Noroeste 0 -- -- 74
2019-11-13 14:00:00 9.4 13 Noroeste 25 Noroeste 0 -- -- 84
2019-11-13 13:00:00 9.5 12 Noroeste 19 Norte 0 -- -- 88
2019-11-13 12:00:00 9.2 11 Norte 21 Noroeste 0 -- -- 92
2019-11-13 11:00:00 8.7 16 Noroeste 29 Noroeste 0 -- -- 93
2019-11-13 10:00:00 8.4 13 Noroeste 19 Noroeste 0 -- -- 93
2019-11-13 09:00:00 8.6 8 Noroeste 14 Noroeste 0 -- -- 93
2019-11-13 08:00:00 -- 6 Noroeste 16 Noroeste 0 -- -- --
2019-11-13 07:00:00 8.8 8 Oeste 18 Oeste 0 -- -- 93
2019-11-13 06:00:00 9.4 12 Norte 37 Norte 0.2 -- -- 93
2019-11-13 05:00:00 11.3 21 Noroeste 38 Noroeste 0.9 -- -- 93
2019-11-13 04:00:00 11.5 18 Noroeste 49 Oeste 0.1 -- -- 93
2019-11-13 03:00:00 11.8 23 Oeste 42 Oeste 1.3 -- -- 93
2019-11-13 02:00:00 12.3 17 Oeste 35 Oeste 0.1 -- -- 93
2019-11-13 01:00:00 12.1 14 Oeste 28 Oeste 0.4 -- -- 93
2019-11-13 00:00:00 11.1 13 Oeste 29 Sudoeste 2.1 -- -- 93
2019-11-12 23:00:00 10.9 13 Oeste 32 Oeste 2.9 -- -- 93
2019-11-12 22:00:00 10.5 11 Oeste 32 Oeste 2.9 -- -- 93
2019-11-12 21:00:00 10 10 Oeste 33 Oeste 4.4 -- -- 93
2019-11-12 20:00:00 9.3 13 Oeste 33 Oeste 3.5 -- -- 93
2019-11-12 19:00:00 8.7 15 Oeste 37 Oeste 1.1 -- -- 93
2019-11-12 18:00:00 8.3 14 Oeste 33 Oeste 0 -- -- 93
2019-11-12 17:00:00 8.6 8 Oeste 31 Sudoeste 0.1 -- -- 93
2019-11-12 16:00:00 8.3 8 Sudoeste 28 Sudoeste 0 -- -- 93
2019-11-12 15:00:00 7.7 4 Sudoeste 15 Sudoeste 0 -- -- 93
2019-11-12 14:00:00 7.2 2 Sur 9 Sur 0 -- -- 93
2019-11-12 13:00:00 6.8 2 Sudeste 8 Sudeste 0.1 -- -- 93
2019-11-12 12:00:00 6.2 2 Sudeste 10 Sudoeste 0.6 -- -- 93
2019-11-12 11:00:00 5.6 3 Sudoeste 12 Oeste 0 -- -- 93
2019-11-12 10:00:00 4.6 4 Oeste 12 Oeste 0 -- -- 93
2019-11-12 09:00:00 3.7 0 Calma 4 Nordeste 0 -- -- 93
2019-11-12 08:00:00 3.5 2 Noroeste 3 Este 0 -- -- 92
2019-11-12 07:00:00 3.2 0 Calma 4 Norte 0 -- -- 92
2019-11-12 06:00:00 2.9 0 Calma -- -- 0 -- -- 92
2019-11-12 05:00:00 2.7 0 Calma 6 Oeste 0 -- -- 92
2019-11-12 04:00:00 2.5 2 Oeste 4 Oeste 0 -- -- 91
2019-11-12 03:00:00 2.4 0 Calma 5 Oeste 0 -- -- 91
2019-11-12 02:00:00 2.2 0 Calma 7 Sur 0 -- -- 90
2019-11-12 01:00:00 2.8 2 Oeste 8 Oeste 0 -- -- 89
2019-11-12 00:00:00 2.5 3 Oeste 9 Oeste 0 -- -- 88